Main page
METAR-TAF:

METAR-TAF

Airports :

Draughon–Miller Central Texas Regional Airport

Temple, Texas, United States

latitude: 31-09N, longitude: 097-24W, elevation: 682 ft

Current weather observation

The report was made 57 minutes ago, at 18:51 UTC
Wind 15 mph from the East with gusts up to 22 mph
Temperature 84°F
Humidity 74%
Pressure 30.15 in. Hg
Visibility: 10 miles
Scattered clouds at a height of 2400 ft
Broken clouds at a height of 3800 ft
Broken clouds at a height of 6000 ft

METAR: KTPL 201851Z AUTO 09013G19KT 10SM SCT024 BKN038 BKN060 29/24 A3015 RMK AO2 SLP199 T02940239

Time: 14:48 (19:48 UTC)


TAF: missing

Weather observations and forecasts of more than 4000 airports (METAR and TAF reports).

The available stations are represented by yellow and red dots on the map.

Hover mouse over dot to see the name of the station.

Then click to see weather observations and forecasts.

To change the map : click on the green buttons with a black cross to zoom in, on the green button with a dash to zoom out, or on the green arrows for adjacent maps.


METAR-TAF: